sensor_id;sensor_type;location;lat;lon;timestamp;P1;durP1;ratioP1;P2;durP2;ratioP2
19347;SDS011;9810;52.480;9.806;2022-12-10T00:01:32;78.83;;;23.10;;
19347;SDS011;9810;52.480;9.806;2022-12-10T00:04:00;86.57;;;24.17;;
19347;SDS011;9810;52.480;9.806;2022-12-10T00:06:28;83.57;;;24.77;;
19347;SDS011;9810;52.480;9.806;2022-12-10T00:08:56;82.47;;;23.77;;
19347;SDS011;9810;52.480;9.806;2022-12-10T00:11:26;92.13;;;24.30;;
19347;SDS011;9810;52.480;9.806;2022-12-10T00:13:53;104.27;;;28.77;;
19347;SDS011;9810;52.480;9.806;2022-12-10T00:16:22;87.90;;;23.53;;
19347;SDS011;9810;52.480;9.806;2022-12-10T00:18:50;83.70;;;23.70;;
19347;SDS011;9810;52.480;9.806;2022-12-10T00:21:20;77.53;;;22.43;;
19347;SDS011;9810;52.480;9.806;2022-12-10T00:23:48;98.53;;;24.00;;
19347;SDS011;9810;52.480;9.806;2022-12-10T00:26:16;94.00;;;25.03;;
19347;SDS011;9810;52.480;9.806;2022-12-10T00:28:46;91.70;;;26.80;;
19347;SDS011;9810;52.480;9.806;2022-12-10T00:31:14;88.37;;;24.53;;
19347;SDS011;9810;52.480;9.806;2022-12-10T00:33:43;84.83;;;25.10;;
19347;SDS011;9810;52.480;9.806;2022-12-10T00:36:12;104.73;;;27.13;;
19347;SDS011;9810;52.480;9.806;2022-12-10T00:38:40;94.47;;;27.87;;
19347;SDS011;9810;52.480;9.806;2022-12-10T00:41:08;87.87;;;23.00;;
19347;SDS011;9810;52.480;9.806;2022-12-10T00:43:35;107.43;;;27.63;;
19347;SDS011;9810;52.480;9.806;2022-12-10T00:46:04;93.43;;;25.90;;
19347;SDS011;9810;52.480;9.806;2022-12-10T00:48:31;106.17;;;24.23;;
19347;SDS011;9810;52.480;9.806;2022-12-10T00:51:00;109.40;;;24.87;;
19347;SDS011;9810;52.480;9.806;2022-12-10T00:53:29;97.43;;;24.83;;
19347;SDS011;9810;52.480;9.806;2022-12-10T00:55:57;100.13;;;24.60;;
19347;SDS011;9810;52.480;9.806;2022-12-10T00:58:26;86.87;;;22.97;;
19347;SDS011;9810;52.480;9.806;2022-12-10T01:00:53;100.83;;;26.03;;
19347;SDS011;9810;52.480;9.806;2022-12-10T01:03:22;110.63;;;25.10;;
19347;SDS011;9810;52.480;9.806;2022-12-10T01:05:49;107.60;;;25.70;;
19347;SDS011;9810;52.480;9.806;2022-12-10T01:08:16;85.32;;;23.02;;
19347;SDS011;9810;52.480;9.806;2022-12-10T01:10:43;93.70;;;22.10;;
19347;SDS011;9810;52.480;9.806;2022-12-10T01:13:18;59.60;;;16.17;;
19347;SDS011;9810;52.480;9.806;2022-12-10T01:15:45;77.13;;;20.93;;
19347;SDS011;9810;52.480;9.806;2022-12-10T01:18:12;73.33;;;19.70;;
19347;SDS011;9810;52.480;9.806;2022-12-10T01:20:41;45.57;;;14.77;;
19347;SDS011;9810;52.480;9.806;2022-12-10T01:23:08;70.67;;;16.57;;
19347;SDS011;9810;52.480;9.806;2022-12-10T01:25:35;74.97;;;19.57;;
19347;SDS011;9810;52.480;9.806;2022-12-10T01:28:02;66.53;;;20.30;;
19347;SDS011;9810;52.480;9.806;2022-12-10T01:30:29;74.60;;;17.07;;
19347;SDS011;9810;52.480;9.806;2022-12-10T01:32:56;67.87;;;20.10;;
19347;SDS011;9810;52.480;9.806;2022-12-10T01:35:23;76.70;;;20.30;;
19347;SDS011;9810;52.480;9.806;2022-12-10T01:37:51;79.63;;;21.83;;
19347;SDS011;9810;52.480;9.806;2022-12-10T01:40:19;63.83;;;19.80;;
19347;SDS011;9810;52.480;9.806;2022-12-10T01:42:46;61.50;;;18.30;;
19347;SDS011;9810;52.480;9.806;2022-12-10T01:45:13;71.03;;;20.37;;
19347;SDS011;9810;52.480;9.806;2022-12-10T01:47:40;71.10;;;19.27;;
19347;SDS011;9810;52.480;9.806;2022-12-10T01:50:07;64.77;;;19.33;;
19347;SDS011;9810;52.480;9.806;2022-12-10T01:52:35;41.43;;;15.50;;
19347;SDS011;9810;52.480;9.806;2022-12-10T01:55:07;59.63;;;18.27;;
19347;SDS011;9810;52.480;9.806;2022-12-10T01:57:50;47.50;;;16.13;;
19347;SDS011;9810;52.480;9.806;2022-12-10T02:00:17;55.57;;;15.83;;
19347;SDS011;9810;52.480;9.806;2022-12-10T02:02:45;49.13;;;17.23;;
19347;SDS011;9810;52.480;9.806;2022-12-10T02:05:20;32.13;;;10.00;;
19347;SDS011;9810;52.480;9.806;2022-12-10T02:07:59;40.63;;;13.47;;
19347;SDS011;9810;52.480;9.806;2022-12-10T02:10:37;36.83;;;12.37;;
19347;SDS011;9810;52.480;9.806;2022-12-10T02:13:10;39.73;;;14.17;;
19347;SDS011;9810;52.480;9.806;2022-12-10T02:15:44;45.70;;;15.17;;
19347;SDS011;9810;52.480;9.806;2022-12-10T02:18:16;35.87;;;13.17;;
19347;SDS011;9810;52.480;9.806;2022-12-10T02:20:47;40.60;;;13.67;;
19347;SDS011;9810;52.480;9.806;2022-12-10T02:23:18;46.53;;;15.07;;
19347;SDS011;9810;52.480;9.806;2022-12-10T02:25:51;40.50;;;14.63;;
19347;SDS011;9810;52.480;9.806;2022-12-10T02:28:24;38.57;;;12.20;;
19347;SDS011;9810;52.480;9.806;2022-12-10T02:31:01;50.07;;;12.87;;
19347;SDS011;9810;52.480;9.806;2022-12-10T02:33:30;36.17;;;12.53;;
19347;SDS011;9810;52.480;9.806;2022-12-10T02:36:02;37.83;;;12.63;;
19347;SDS011;9810;52.480;9.806;2022-12-10T02:38:32;44.93;;;14.47;;
19347;SDS011;9810;52.480;9.806;2022-12-10T02:41:04;44.50;;;14.63;;
19347;SDS011;9810;52.480;9.806;2022-12-10T02:43:33;42.40;;;14.20;;
19347;SDS011;9810;52.480;9.806;2022-12-10T02:46:03;39.67;;;13.63;;
19347;SDS011;9810;52.480;9.806;2022-12-10T02:48:31;29.50;;;11.83;;
19347;SDS011;9810;52.480;9.806;2022-12-10T02:51:00;43.77;;;14.67;;
19347;SDS011;9810;52.480;9.806;2022-12-10T02:53:27;42.80;;;14.50;;
19347;SDS011;9810;52.480;9.806;2022-12-10T02:55:57;40.83;;;13.73;;
19347;SDS011;9810;52.480;9.806;2022-12-10T02:58:39;42.87;;;13.07;;
19347;SDS011;9810;52.480;9.806;2022-12-10T03:01:18;44.47;;;14.40;;
19347;SDS011;9810;52.480;9.806;2022-12-10T03:03:52;49.23;;;13.60;;
19347;SDS011;9810;52.480;9.806;2022-12-10T03:06:27;46.73;;;15.97;;
19347;SDS011;9810;52.480;9.806;2022-12-10T03:08:59;43.00;;;14.90;;
19347;SDS011;9810;52.480;9.806;2022-12-10T03:11:30;46.37;;;14.63;;
19347;SDS011;9810;52.480;9.806;2022-12-10T03:13:58;42.47;;;14.60;;
19347;SDS011;9810;52.480;9.806;2022-12-10T03:16:31;43.37;;;14.53;;
19347;SDS011;9810;52.480;9.806;2022-12-10T03:19:02;45.63;;;16.53;;
19347;SDS011;9810;52.480;9.806;2022-12-10T03:21:32;47.30;;;14.90;;
19347;SDS011;9810;52.480;9.806;2022-12-10T03:24:02;48.17;;;15.03;;
19347;SDS011;9810;52.480;9.806;2022-12-10T03:26:30;52.20;;;16.37;;
19347;SDS011;9810;52.480;9.806;2022-12-10T03:29:00;43.80;;;14.10;;
19347;SDS011;9810;52.480;9.806;2022-12-10T03:31:32;37.83;;;12.90;;
19347;SDS011;9810;52.480;9.806;2022-12-10T03:34:01;36.10;;;12.83;;
19347;SDS011;9810;52.480;9.806;2022-12-10T03:36:30;35.23;;;12.50;;
19347;SDS011;9810;52.480;9.806;2022-12-10T03:38:59;41.23;;;12.77;;
19347;SDS011;9810;52.480;9.806;2022-12-10T03:41:27;36.07;;;14.20;;
19347;SDS011;9810;52.480;9.806;2022-12-10T03:43:55;30.37;;;11.93;;
19347;SDS011;9810;52.480;9.806;2022-12-10T03:46:23;40.43;;;14.00;;
19347;SDS011;9810;52.480;9.806;2022-12-10T03:48:53;39.03;;;13.73;;
19347;SDS011;9810;52.480;9.806;2022-12-10T03:51:21;36.97;;;13.77;;
19347;SDS011;9810;52.480;9.806;2022-12-10T03:53:48;35.57;;;12.80;;
19347;SDS011;9810;52.480;9.806;2022-12-10T03:56:15;35.10;;;12.90;;
19347;SDS011;9810;52.480;9.806;2022-12-10T03:58:42;38.43;;;13.83;;
19347;SDS011;9810;52.480;9.806;2022-12-10T04:01:09;34.90;;;12.27;;
19347;SDS011;9810;52.480;9.806;2022-12-10T04:03:37;38.87;;;14.53;;
19347;SDS011;9810;52.480;9.806;2022-12-10T04:06:14;37.83;;;13.13;;
19347;SDS011;9810;52.480;9.806;2022-12-10T04:08:43;39.20;;;13.60;;
19347;SDS011;9810;52.480;9.806;2022-12-10T04:11:11;32.40;;;11.83;;
19347;SDS011;9810;52.480;9.806;2022-12-10T04:13:39;35.87;;;13.17;;
19347;SDS011;9810;52.480;9.806;2022-12-10T04:16:25;37.20;;;14.03;;
19347;SDS011;9810;52.480;9.806;2022-12-10T04:18:55;37.43;;;13.50;;
19347;SDS011;9810;52.480;9.806;2022-12-10T04:21:25;37.07;;;13.17;;
19347;SDS011;9810;52.480;9.806;2022-12-10T04:24:11;31.13;;;11.63;;
19347;SDS011;9810;52.480;9.806;2022-12-10T04:26:57;38.80;;;14.10;;
19347;SDS011;9810;52.480;9.806;2022-12-10T04:29:28;37.23;;;13.40;;
19347;SDS011;9810;52.480;9.806;2022-12-10T04:31:56;31.07;;;11.63;;
19347;SDS011;9810;52.480;9.806;2022-12-10T04:34:24;34.13;;;15.03;;
19347;SDS011;9810;52.480;9.806;2022-12-10T04:36:53;37.63;;;12.83;;
19347;SDS011;9810;52.480;9.806;2022-12-10T04:39:20;33.63;;;13.17;;
19347;SDS011;9810;52.480;9.806;2022-12-10T04:41:47;41.67;;;14.07;;
19347;SDS011;9810;52.480;9.806;2022-12-10T04:44:15;37.53;;;14.53;;
19347;SDS011;9810;52.480;9.806;2022-12-10T04:46:43;31.77;;;13.37;;
19347;SDS011;9810;52.480;9.806;2022-12-10T04:49:10;38.20;;;13.87;;
19347;SDS011;9810;52.480;9.806;2022-12-10T04:51:38;35.13;;;14.07;;
19347;SDS011;9810;52.480;9.806;2022-12-10T04:54:07;44.93;;;14.17;;
19347;SDS011;9810;52.480;9.806;2022-12-10T04:56:35;40.63;;;13.53;;
19347;SDS011;9810;52.480;9.806;2022-12-10T04:59:03;41.23;;;16.17;;
19347;SDS011;9810;52.480;9.806;2022-12-10T05:01:31;39.57;;;14.47;;
19347;SDS011;9810;52.480;9.806;2022-12-10T05:03:59;41.73;;;15.67;;
19347;SDS011;9810;52.480;9.806;2022-12-10T05:06:28;39.37;;;14.53;;
19347;SDS011;9810;52.480;9.806;2022-12-10T05:08:55;37.40;;;13.90;;
19347;SDS011;9810;52.480;9.806;2022-12-10T05:11:25;45.80;;;14.47;;
19347;SDS011;9810;52.480;9.806;2022-12-10T05:13:54;43.23;;;16.63;;
19347;SDS011;9810;52.480;9.806;2022-12-10T05:16:22;43.33;;;15.63;;
19347;SDS011;9810;52.480;9.806;2022-12-10T05:18:50;30.50;;;11.17;;
19347;SDS011;9810;52.480;9.806;2022-12-10T05:21:19;32.90;;;13.00;;
19347;SDS011;9810;52.480;9.806;2022-12-10T05:23:48;37.67;;;14.37;;
19347;SDS011;9810;52.480;9.806;2022-12-10T05:26:16;36.10;;;13.80;;
19347;SDS011;9810;52.480;9.806;2022-12-10T05:28:46;43.40;;;16.10;;
19347;SDS011;9810;52.480;9.806;2022-12-10T05:31:15;37.57;;;14.30;;
19347;SDS011;9810;52.480;9.806;2022-12-10T05:33:43;39.60;;;14.83;;
19347;SDS011;9810;52.480;9.806;2022-12-10T05:36:11;39.43;;;14.63;;
19347;SDS011;9810;52.480;9.806;2022-12-10T05:38:40;32.03;;;11.97;;
19347;SDS011;9810;52.480;9.806;2022-12-10T05:41:08;34.47;;;13.00;;
19347;SDS011;9810;52.480;9.806;2022-12-10T05:43:37;31.97;;;13.53;;
19347;SDS011;9810;52.480;9.806;2022-12-10T05:46:07;35.33;;;14.70;;
19347;SDS011;9810;52.480;9.806;2022-12-10T05:48:37;41.23;;;14.07;;
19347;SDS011;9810;52.480;9.806;2022-12-10T05:51:04;38.47;;;14.30;;
19347;SDS011;9810;52.480;9.806;2022-12-10T05:53:32;35.37;;;13.60;;
19347;SDS011;9810;52.480;9.806;2022-12-10T05:56:00;36.27;;;14.20;;
19347;SDS011;9810;52.480;9.806;2022-12-10T05:58:27;36.17;;;13.77;;
19347;SDS011;9810;52.480;9.806;2022-12-10T06:00:55;37.77;;;15.37;;
19347;SDS011;9810;52.480;9.806;2022-12-10T06:03:26;40.70;;;17.80;;
19347;SDS011;9810;52.480;9.806;2022-12-10T06:05:53;40.13;;;16.00;;
19347;SDS011;9810;52.480;9.806;2022-12-10T06:08:20;29.13;;;13.10;;
19347;SDS011;9810;52.480;9.806;2022-12-10T06:10:48;37.87;;;14.40;;
19347;SDS011;9810;52.480;9.806;2022-12-10T06:13:15;31.50;;;12.73;;
19347;SDS011;9810;52.480;9.806;2022-12-10T06:15:43;36.00;;;12.90;;
19347;SDS011;9810;52.480;9.806;2022-12-10T06:18:10;32.03;;;12.37;;
19347;SDS011;9810;52.480;9.806;2022-12-10T06:20:39;37.63;;;12.93;;
19347;SDS011;9810;52.480;9.806;2022-12-10T06:23:06;27.10;;;10.53;;
19347;SDS011;9810;52.480;9.806;2022-12-10T06:25:33;29.07;;;12.43;;
19347;SDS011;9810;52.480;9.806;2022-12-10T06:28:03;32.50;;;12.00;;
19347;SDS011;9810;52.480;9.806;2022-12-10T06:30:31;29.27;;;11.83;;
19347;SDS011;9810;52.480;9.806;2022-12-10T06:32:58;29.07;;;12.30;;
19347;SDS011;9810;52.480;9.806;2022-12-10T06:35:26;16.43;;;6.97;;
19347;SDS011;9810;52.480;9.806;2022-12-10T06:37:54;33.57;;;12.47;;
19347;SDS011;9810;52.480;9.806;2022-12-10T06:40:21;28.07;;;11.53;;
19347;SDS011;9810;52.480;9.806;2022-12-10T06:42:50;21.27;;;9.47;;
19347;SDS011;9810;52.480;9.806;2022-12-10T06:45:17;22.33;;;9.93;;
19347;SDS011;9810;52.480;9.806;2022-12-10T06:47:44;34.10;;;11.93;;
19347;SDS011;9810;52.480;9.806;2022-12-10T06:50:11;24.53;;;10.97;;
19347;SDS011;9810;52.480;9.806;2022-12-10T06:52:38;16.20;;;8.20;;
19347;SDS011;9810;52.480;9.806;2022-12-10T06:55:08;18.30;;;8.07;;
19347;SDS011;9810;52.480;9.806;2022-12-10T06:57:35;29.63;;;10.20;;
19347;SDS011;9810;52.480;9.806;2022-12-10T07:00:02;31.73;;;11.83;;
19347;SDS011;9810;52.480;9.806;2022-12-10T07:02:30;27.53;;;10.50;;
19347;SDS011;9810;52.480;9.806;2022-12-10T07:04:59;37.03;;;13.50;;
19347;SDS011;9810;52.480;9.806;2022-12-10T07:07:26;33.87;;;13.33;;
19347;SDS011;9810;52.480;9.806;2022-12-10T07:09:53;27.23;;;13.13;;
19347;SDS011;9810;52.480;9.806;2022-12-10T07:12:21;13.40;;;5.53;;
19347;SDS011;9810;52.480;9.806;2022-12-10T07:14:48;27.53;;;11.63;;
19347;SDS011;9810;52.480;9.806;2022-12-10T07:17:15;26.50;;;12.90;;
19347;SDS011;9810;52.480;9.806;2022-12-10T07:19:42;24.50;;;10.77;;
19347;SDS011;9810;52.480;9.806;2022-12-10T07:22:09;22.43;;;10.10;;
19347;SDS011;9810;52.480;9.806;2022-12-10T07:24:36;24.73;;;9.63;;
19347;SDS011;9810;52.480;9.806;2022-12-10T07:27:04;30.87;;;12.00;;
19347;SDS011;9810;52.480;9.806;2022-12-10T07:29:33;33.63;;;12.00;;
19347;SDS011;9810;52.480;9.806;2022-12-10T07:32:00;29.03;;;13.63;;
19347;SDS011;9810;52.480;9.806;2022-12-10T07:34:28;32.67;;;12.67;;
19347;SDS011;9810;52.480;9.806;2022-12-10T07:36:55;27.03;;;12.73;;
19347;SDS011;9810;52.480;9.806;2022-12-10T07:39:22;28.50;;;12.97;;
19347;SDS011;9810;52.480;9.806;2022-12-10T07:41:49;28.13;;;11.90;;
19347;SDS011;9810;52.480;9.806;2022-12-10T07:44:17;24.77;;;10.50;;
19347;SDS011;9810;52.480;9.806;2022-12-10T07:46:48;28.40;;;12.07;;
19347;SDS011;9810;52.480;9.806;2022-12-10T07:49:16;24.13;;;11.60;;
19347;SDS011;9810;52.480;9.806;2022-12-10T07:51:44;37.13;;;16.05;;
19347;SDS011;9810;52.480;9.806;2022-12-10T07:54:11;29.60;;;13.77;;
19347;SDS011;9810;52.480;9.806;2022-12-10T07:56:39;27.90;;;12.97;;
19347;SDS011;9810;52.480;9.806;2022-12-10T07:59:06;33.53;;;12.73;;
19347;SDS011;9810;52.480;9.806;2022-12-10T08:01:33;30.37;;;13.30;;
19347;SDS011;9810;52.480;9.806;2022-12-10T08:04:02;32.42;;;14.93;;
19347;SDS011;9810;52.480;9.806;2022-12-10T08:06:29;30.17;;;12.83;;
19347;SDS011;9810;52.480;9.806;2022-12-10T08:08:57;29.93;;;12.70;;
19347;SDS011;9810;52.480;9.806;2022-12-10T08:11:25;32.47;;;12.37;;
19347;SDS011;9810;52.480;9.806;2022-12-10T08:13:53;27.67;;;11.13;;
19347;SDS011;9810;52.480;9.806;2022-12-10T08:16:21;24.67;;;10.20;;
19347;SDS011;9810;52.480;9.806;2022-12-10T08:18:50;27.57;;;11.07;;
19347;SDS011;9810;52.480;9.806;2022-12-10T08:21:19;26.63;;;12.37;;
19347;SDS011;9810;52.480;9.806;2022-12-10T08:23:47;27.50;;;12.60;;
19347;SDS011;9810;52.480;9.806;2022-12-10T08:26:15;19.07;;;9.03;;
19347;SDS011;9810;52.480;9.806;2022-12-10T08:28:44;22.63;;;8.67;;
19347;SDS011;9810;52.480;9.806;2022-12-10T08:31:12;28.30;;;12.03;;
19347;SDS011;9810;52.480;9.806;2022-12-10T08:33:40;26.47;;;12.50;;
19347;SDS011;9810;52.480;9.806;2022-12-10T08:36:08;26.97;;;11.90;;
19347;SDS011;9810;52.480;9.806;2022-12-10T08:38:39;26.20;;;11.93;;
19347;SDS011;9810;52.480;9.806;2022-12-10T08:41:07;25.73;;;8.70;;
19347;SDS011;9810;52.480;9.806;2022-12-10T08:43:34;21.07;;;10.40;;
19347;SDS011;9810;52.480;9.806;2022-12-10T08:46:01;13.37;;;7.80;;
19347;SDS011;9810;52.480;9.806;2022-12-10T08:48:29;25.30;;;11.73;;
19347;SDS011;9810;52.480;9.806;2022-12-10T08:50:56;25.17;;;11.13;;
19347;SDS011;9810;52.480;9.806;2022-12-10T08:53:23;25.23;;;12.60;;
19347;SDS011;9810;52.480;9.806;2022-12-10T08:55:52;28.17;;;12.67;;
19347;SDS011;9810;52.480;9.806;2022-12-10T08:58:20;24.33;;;10.67;;
19347;SDS011;9810;52.480;9.806;2022-12-10T09:00:47;33.40;;;13.90;;
19347;SDS011;9810;52.480;9.806;2022-12-10T09:03:15;35.57;;;14.47;;
19347;SDS011;9810;52.480;9.806;2022-12-10T09:05:42;36.47;;;14.50;;
19347;SDS011;9810;52.480;9.806;2022-12-10T09:08:10;39.20;;;14.20;;
19347;SDS011;9810;52.480;9.806;2022-12-10T09:10:37;20.57;;;9.47;;
19347;SDS011;9810;52.480;9.806;2022-12-10T09:13:06;41.60;;;17.40;;
19347;SDS011;9810;52.480;9.806;2022-12-10T09:15:33;42.60;;;15.77;;
19347;SDS011;9810;52.480;9.806;2022-12-10T09:18:00;34.70;;;13.33;;
19347;SDS011;9810;52.480;9.806;2022-12-10T09:20:27;37.83;;;14.33;;
19347;SDS011;9810;52.480;9.806;2022-12-10T09:22:54;33.63;;;13.77;;
19347;SDS011;9810;52.480;9.806;2022-12-10T09:25:22;42.37;;;15.20;;
19347;SDS011;9810;52.480;9.806;2022-12-10T09:27:49;40.03;;;13.93;;
19347;SDS011;9810;52.480;9.806;2022-12-10T09:30:17;41.93;;;16.23;;
19347;SDS011;9810;52.480;9.806;2022-12-10T09:32:45;34.73;;;14.27;;
19347;SDS011;9810;52.480;9.806;2022-12-10T09:35:12;35.00;;;14.33;;
19347;SDS011;9810;52.480;9.806;2022-12-10T09:37:39;33.83;;;12.87;;
19347;SDS011;9810;52.480;9.806;2022-12-10T09:40:06;39.60;;;14.67;;
19347;SDS011;9810;52.480;9.806;2022-12-10T09:42:34;28.30;;;13.67;;
19347;SDS011;9810;52.480;9.806;2022-12-10T09:45:12;37.67;;;14.37;;
19347;SDS011;9810;52.480;9.806;2022-12-10T09:47:48;28.07;;;11.63;;
19347;SDS011;9810;52.480;9.806;2022-12-10T09:50:23;34.80;;;14.07;;
19347;SDS011;9810;52.480;9.806;2022-12-10T09:52:57;31.93;;;13.33;;
19347;SDS011;9810;52.480;9.806;2022-12-10T09:55:30;31.90;;;13.23;;
19347;SDS011;9810;52.480;9.806;2022-12-10T09:57:59;33.40;;;13.13;;
19347;SDS011;9810;52.480;9.806;2022-12-10T10:00:29;30.80;;;14.33;;
19347;SDS011;9810;52.480;9.806;2022-12-10T10:03:02;28.93;;;12.90;;
19347;SDS011;9810;52.480;9.806;2022-12-10T10:05:32;30.03;;;13.00;;
19347;SDS011;9810;52.480;9.806;2022-12-10T10:08:02;32.15;;;13.93;;
19347;SDS011;9810;52.480;9.806;2022-12-10T10:10:31;26.77;;;13.40;;
19347;SDS011;9810;52.480;9.806;2022-12-10T10:13:00;30.00;;;12.97;;
19347;SDS011;9810;52.480;9.806;2022-12-10T10:15:39;35.08;;;15.48;;
19347;SDS011;9810;52.480;9.806;2022-12-10T10:18:11;31.20;;;11.70;;
19347;SDS011;9810;52.480;9.806;2022-12-10T10:20:44;31.30;;;13.73;;
19347;SDS011;9810;52.480;9.806;2022-12-10T10:23:12;34.17;;;12.63;;
19347;SDS011;9810;52.480;9.806;2022-12-10T10:25:41;32.50;;;12.37;;
19347;SDS011;9810;52.480;9.806;2022-12-10T10:28:10;30.20;;;12.90;;
19347;SDS011;9810;52.480;9.806;2022-12-10T10:30:40;31.50;;;11.83;;
19347;SDS011;9810;52.480;9.806;2022-12-10T10:33:12;22.83;;;9.00;;
19347;SDS011;9810;52.480;9.806;2022-12-10T10:35:42;25.67;;;10.47;;
19347;SDS011;9810;52.480;9.806;2022-12-10T10:38:13;33.53;;;12.83;;
19347;SDS011;9810;52.480;9.806;2022-12-10T10:40:45;27.90;;;11.83;;
19347;SDS011;9810;52.480;9.806;2022-12-10T10:43:18;32.43;;;13.17;;
19347;SDS011;9810;52.480;9.806;2022-12-10T10:45:47;29.27;;;12.33;;
19347;SDS011;9810;52.480;9.806;2022-12-10T10:48:19;33.97;;;11.70;;
19347;SDS011;9810;52.480;9.806;2022-12-10T10:50:48;22.83;;;10.83;;
19347;SDS011;9810;52.480;9.806;2022-12-10T10:53:24;29.57;;;13.20;;
19347;SDS011;9810;52.480;9.806;2022-12-10T10:55:57;26.13;;;11.93;;
19347;SDS011;9810;52.480;9.806;2022-12-10T10:58:30;28.37;;;13.13;;
19347;SDS011;9810;52.480;9.806;2022-12-10T11:00:58;31.57;;;12.90;;
19347;SDS011;9810;52.480;9.806;2022-12-10T11:03:28;26.97;;;12.50;;
19347;SDS011;9810;52.480;9.806;2022-12-10T11:05:57;31.27;;;12.10;;
19347;SDS011;9810;52.480;9.806;2022-12-10T11:08:26;23.00;;;10.77;;
19347;SDS011;9810;52.480;9.806;2022-12-10T11:10:58;31.27;;;12.83;;
19347;SDS011;9810;52.480;9.806;2022-12-10T11:13:29;29.43;;;12.17;;
19347;SDS011;9810;52.480;9.806;2022-12-10T11:15:58;25.30;;;10.60;;
19347;SDS011;9810;52.480;9.806;2022-12-10T11:18:31;27.10;;;10.57;;
19347;SDS011;9810;52.480;9.806;2022-12-10T11:21:01;29.27;;;12.87;;
19347;SDS011;9810;52.480;9.806;2022-12-10T11:23:31;26.30;;;12.50;;
19347;SDS011;9810;52.480;9.806;2022-12-10T11:26:12;38.90;;;15.90;;
19347;SDS011;9810;52.480;9.806;2022-12-10T11:28:53;32.20;;;14.73;;
19347;SDS011;9810;52.480;9.806;2022-12-10T11:31:34;31.97;;;15.67;;
19347;SDS011;9810;52.480;9.806;2022-12-10T11:34:24;32.17;;;13.70;;
19347;SDS011;9810;52.480;9.806;2022-12-10T11:37:03;30.93;;;12.13;;
19347;SDS011;9810;52.480;9.806;2022-12-10T11:39:45;35.57;;;13.37;;
19347;SDS011;9810;52.480;9.806;2022-12-10T11:42:29;32.37;;;13.23;;
19347;SDS011;9810;52.480;9.806;2022-12-10T11:45:07;34.47;;;12.33;;
19347;SDS011;9810;52.480;9.806;2022-12-10T11:50:36;28.80;;;12.43;;
19347;SDS011;9810;52.480;9.806;2022-12-10T11:53:11;30.97;;;13.53;;
19347;SDS011;9810;52.480;9.806;2022-12-10T11:55:47;34.30;;;13.23;;
19347;SDS011;9810;52.480;9.806;2022-12-10T11:58:34;28.77;;;12.20;;
19347;SDS011;9810;52.480;9.806;2022-12-10T12:01:26;29.07;;;12.17;;
19347;SDS011;9810;52.480;9.806;2022-12-10T12:04:15;27.10;;;11.73;;
19347;SDS011;9810;52.480;9.806;2022-12-10T12:06:55;29.93;;;12.50;;
19347;SDS011;9810;52.480;9.806;2022-12-10T12:09:45;26.37;;;11.07;;
19347;SDS011;9810;52.480;9.806;2022-12-10T12:12:29;31.27;;;13.47;;
19347;SDS011;9810;52.480;9.806;2022-12-10T12:15:12;26.00;;;12.10;;
19347;SDS011;9810;52.480;9.806;2022-12-10T12:17:45;27.63;;;12.63;;
19347;SDS011;9810;52.480;9.806;2022-12-10T12:20:14;26.30;;;11.70;;
19347;SDS011;9810;52.480;9.806;2022-12-10T12:22:48;30.40;;;13.30;;
19347;SDS011;9810;52.480;9.806;2022-12-10T12:25:20;32.27;;;12.87;;
19347;SDS011;9810;52.480;9.806;2022-12-10T12:27:53;30.00;;;13.03;;
19347;SDS011;9810;52.480;9.806;2022-12-10T12:30:27;26.23;;;11.53;;
19347;SDS011;9810;52.480;9.806;2022-12-10T12:32:57;29.40;;;12.60;;
19347;SDS011;9810;52.480;9.806;2022-12-10T12:35:30;35.70;;;13.63;;
19347;SDS011;9810;52.480;9.806;2022-12-10T12:38:11;30.10;;;13.40;;
19347;SDS011;9810;52.480;9.806;2022-12-10T12:40:51;27.57;;;11.10;;
19347;SDS011;9810;52.480;9.806;2022-12-10T12:43:24;31.47;;;13.13;;
19347;SDS011;9810;52.480;9.806;2022-12-10T12:45:57;31.87;;;11.77;;
19347;SDS011;9810;52.480;9.806;2022-12-10T12:48:26;27.87;;;12.57;;
19347;SDS011;9810;52.480;9.806;2022-12-10T12:51:02;31.27;;;13.30;;
19347;SDS011;9810;52.480;9.806;2022-12-10T12:53:34;30.43;;;12.67;;
19347;SDS011;9810;52.480;9.806;2022-12-10T12:56:03;32.23;;;13.00;;
19347;SDS011;9810;52.480;9.806;2022-12-10T12:58:36;32.70;;;13.40;;
19347;SDS011;9810;52.480;9.806;2022-12-10T13:01:12;26.67;;;11.80;;
19347;SDS011;9810;52.480;9.806;2022-12-10T13:03:46;32.03;;;12.60;;
19347;SDS011;9810;52.480;9.806;2022-12-10T13:06:17;25.27;;;11.60;;
19347;SDS011;9810;52.480;9.806;2022-12-10T13:08:50;28.40;;;11.10;;
19347;SDS011;9810;52.480;9.806;2022-12-10T13:11:33;32.37;;;12.37;;
19347;SDS011;9810;52.480;9.806;2022-12-10T13:14:12;26.80;;;11.57;;
19347;SDS011;9810;52.480;9.806;2022-12-10T13:17:05;26.23;;;11.67;;
19347;SDS011;9810;52.480;9.806;2022-12-10T13:19:49;32.27;;;12.90;;
19347;SDS011;9810;52.480;9.806;2022-12-10T13:25:13;30.17;;;12.27;;
19347;SDS011;9810;52.480;9.806;2022-12-10T13:27:41;35.53;;;16.37;;
19347;SDS011;9810;52.480;9.806;2022-12-10T13:33:14;34.70;;;14.10;;
19347;SDS011;9810;52.480;9.806;2022-12-10T13:35:49;35.43;;;13.43;;
19347;SDS011;9810;52.480;9.806;2022-12-10T13:38:22;28.50;;;12.20;;
19347;SDS011;9810;52.480;9.806;2022-12-10T13:41:00;34.40;;;14.50;;
19347;SDS011;9810;52.480;9.806;2022-12-10T13:43:52;29.90;;;12.23;;
19347;SDS011;9810;52.480;9.806;2022-12-10T13:49:22;30.87;;;12.70;;
19347;SDS011;9810;52.480;9.806;2022-12-10T13:51:54;29.63;;;12.50;;
19347;SDS011;9810;52.480;9.806;2022-12-10T13:57:34;36.17;;;15.43;;
19347;SDS011;9810;52.480;9.806;2022-12-10T14:00:13;33.80;;;13.80;;
19347;SDS011;9810;52.480;9.806;2022-12-10T14:02:46;35.97;;;14.37;;
19347;SDS011;9810;52.480;9.806;2022-12-10T14:05:48;31.00;;;13.03;;
19347;SDS011;9810;52.480;9.806;2022-12-10T14:08:25;33.57;;;13.37;;
19347;SDS011;9810;52.480;9.806;2022-12-10T14:10:55;54.57;;;25.93;;
19347;SDS011;9810;52.480;9.806;2022-12-10T14:13:27;34.00;;;14.80;;
19347;SDS011;9810;52.480;9.806;2022-12-10T14:16:00;28.10;;;12.93;;
19347;SDS011;9810;52.480;9.806;2022-12-10T14:18:28;34.97;;;14.80;;
19347;SDS011;9810;52.480;9.806;2022-12-10T14:20:55;30.57;;;13.03;;
19347;SDS011;9810;52.480;9.806;2022-12-10T14:23:25;38.13;;;14.67;;
19347;SDS011;9810;52.480;9.806;2022-12-10T14:26:05;38.00;;;16.33;;
19347;SDS011;9810;52.480;9.806;2022-12-10T14:28:39;45.37;;;17.13;;
19347;SDS011;9810;52.480;9.806;2022-12-10T14:31:10;32.70;;;13.53;;
19347;SDS011;9810;52.480;9.806;2022-12-10T14:33:41;31.93;;;13.10;;
19347;SDS011;9810;52.480;9.806;2022-12-10T14:36:15;35.87;;;14.30;;
19347;SDS011;9810;52.480;9.806;2022-12-10T14:38:46;38.73;;;16.43;;
19347;SDS011;9810;52.480;9.806;2022-12-10T14:41:15;39.30;;;15.30;;
19347;SDS011;9810;52.480;9.806;2022-12-10T14:43:48;40.13;;;16.70;;
19347;SDS011;9810;52.480;9.806;2022-12-10T14:46:17;37.57;;;15.23;;
19347;SDS011;9810;52.480;9.806;2022-12-10T14:48:48;33.23;;;13.93;;
19347;SDS011;9810;52.480;9.806;2022-12-10T14:51:18;33.63;;;13.87;;
19347;SDS011;9810;52.480;9.806;2022-12-10T14:53:46;31.63;;;12.60;;
19347;SDS011;9810;52.480;9.806;2022-12-10T14:56:16;35.17;;;14.47;;
19347;SDS011;9810;52.480;9.806;2022-12-10T14:58:50;43.43;;;15.97;;
19347;SDS011;9810;52.480;9.806;2022-12-10T15:01:22;32.40;;;14.30;;
19347;SDS011;9810;52.480;9.806;2022-12-10T15:03:53;44.67;;;18.10;;
19347;SDS011;9810;52.480;9.806;2022-12-10T15:06:21;40.97;;;16.30;;
19347;SDS011;9810;52.480;9.806;2022-12-10T15:08:49;40.27;;;17.17;;
19347;SDS011;9810;52.480;9.806;2022-12-10T15:11:20;32.93;;;13.60;;